Time;durP1;ratioP1;P1;durP2;ratioP2;P2;SDS_P1;SDS_P2;PMS_P1;PMS_P2;Temp;Humidity;BMP_temperature;BMP_pressure;BME280_temperature;BME280_humidity;BME280_pressure;Samples;Min_cycle;Max_cycle;Signal;HPM_P1;HPM_P2
2022/03/17 00:02:06;;;;;;;21.20;10.23;;;8.20;94.60;;;;;;5027910;28;20565;-50
2022/03/17 00:04:33;;;;;;;22.47;11.10;;;8.20;94.60;;;;;;5022728;28;20659;-48
2022/03/17 00:07:01;;;;;;;19.83;9.83;;;8.20;94.60;;;;;;5029018;28;20240;-45
2022/03/17 00:09:28;;;;;;;24.50;10.93;;;8.20;94.60;;;;;;5028462;28;20245;-44
2022/03/17 00:11:57;;;;;;;25.17;12.17;;;8.20;94.60;;;;;;5025200;28;20627;-50
2022/03/17 00:14:25;;;;;;;36.80;16.10;;;8.10;94.60;;;;;;5032408;28;20637;-49
2022/03/17 00:16:52;;;;;;;29.00;13.07;;;8.10;94.60;;;;;;5030950;28;20203;-47
2022/03/17 00:19:19;;;;;;;28.43;12.23;;;8.10;94.70;;;;;;5025220;28;20658;-49
2022/03/17 00:21:47;;;;;;;24.93;10.70;;;8.00;94.70;;;;;;5033053;28;20252;-47
2022/03/17 00:24:14;;;;;;;23.97;10.80;;;8.00;94.80;;;;;;5032235;28;20206;-46
2022/03/17 00:26:41;;;;;;;24.37;11.53;;;8.00;94.90;;;;;;5034416;28;20216;-50
2022/03/17 00:29:11;;;;;;;19.73;9.97;;;8.00;94.80;;;;;;5035656;28;20217;-47
2022/03/17 00:31:39;;;;;;;20.63;9.40;;;8.10;94.90;;;;;;5031059;28;20201;-44
2022/03/17 00:34:07;;;;;;;30.00;12.73;;;8.10;94.80;;;;;;5027676;28;20199;-45
2022/03/17 00:36:35;;;;;;;37.03;16.03;;;8.10;94.80;;;;;;5032447;28;20674;-46
2022/03/17 00:39:04;;;;;;;31.27;14.23;;;8.10;94.90;;;;;;5029239;28;20230;-49
2022/03/17 00:41:31;;;;;;;37.17;15.87;;;8.10;94.90;;;;;;5028210;28;20198;-45
2022/03/17 00:43:58;;;;;;;31.83;13.97;;;8.20;95.00;;;;;;5032306;28;20205;-45
2022/03/17 00:46:27;;;;;;;42.60;17.60;;;8.20;94.90;;;;;;5029465;28;20202;-48
2022/03/17 00:48:55;;;;;;;57.10;24.60;;;8.20;94.90;;;;;;5028681;28;20218;-45
2022/03/17 00:51:22;;;;;;;64.13;27.60;;;8.20;94.80;;;;;;5013035;28;20202;-50
2022/03/17 00:53:50;;;;;;;44.13;19.70;;;8.20;94.80;;;;;;5027810;28;20202;-47
2022/03/17 00:56:17;;;;;;;52.00;22.73;;;8.10;94.80;;;;;;5031595;28;20202;-47
2022/03/17 00:58:45;;;;;;;55.53;24.03;;;8.10;94.80;;;;;;5013825;28;20206;-44
2022/03/17 01:01:13;;;;;;;52.83;22.47;;;8.10;94.90;;;;;;5025848;28;20197;-47
2022/03/17 01:03:42;;;;;;;52.27;22.10;;;8.00;94.90;;;;;;5035137;28;20264;-48
2022/03/17 01:06:10;;;;;;;39.80;18.33;;;8.00;94.90;;;;;;5026014;28;20199;-47
2022/03/17 01:08:37;;;;;;;49.97;22.17;;;8.00;94.90;;;;;;5017279;28;20218;-47
2022/03/17 01:11:05;;;;;;;64.93;25.90;;;8.10;95.00;;;;;;5027223;28;20301;-45
2022/03/17 01:13:33;;;;;;;66.63;27.27;;;8.10;94.90;;;;;;5034600;28;20195;-48
2022/03/17 01:16:00;;;;;;;71.00;28.47;;;8.00;94.90;;;;;;5028119;28;20716;-46
2022/03/17 01:18:30;;;;;;;71.67;29.37;;;7.90;95.00;;;;;;5032028;28;20199;-47
2022/03/17 01:20:58;;;;;;;73.37;28.17;;;7.80;95.10;;;;;;5028328;28;20202;-46
2022/03/17 01:23:26;;;;;;;74.00;28.73;;;7.70;95.40;;;;;;5026021;28;20206;-45
2022/03/17 01:25:53;;;;;;;53.17;22.70;;;7.60;95.60;;;;;;5031452;28;20218;-49
2022/03/17 01:28:20;;;;;;;55.57;22.70;;;7.60;95.70;;;;;;5031178;28;20223;-48
2022/03/17 01:30:48;;;;;;;59.67;22.77;;;7.60;95.90;;;;;;5027804;28;20201;-47
2022/03/17 01:33:16;;;;;;;41.33;18.43;;;7.60;96.10;;;;;;5031044;28;20655;-44
2022/03/17 01:35:43;;;;;;;37.07;15.57;;;7.60;96.10;;;;;;5028244;28;20191;-49
2022/03/17 01:38:11;;;;;;;41.03;16.73;;;7.70;96.10;;;;;;5029357;28;20271;-45
2022/03/17 01:40:39;;;;;;;36.47;14.80;;;7.70;95.90;;;;;;5031626;28;20205;-45
2022/03/17 01:43:06;;;;;;;36.70;13.97;;;7.70;95.90;;;;;;5001437;28;20574;-47
2022/03/17 01:45:33;;;;;;;32.10;13.33;;;7.70;95.80;;;;;;5025585;28;20217;-46
2022/03/17 01:48:00;;;;;;;31.83;13.40;;;7.60;95.80;;;;;;5029235;28;20690;-46
2022/03/17 01:50:29;;;;;;;22.87;10.97;;;7.60;95.80;;;;;;5028303;28;20473;-45
2022/03/17 01:52:56;;;;;;;22.47;10.63;;;7.50;95.80;;;;;;5030493;28;20248;-50
2022/03/17 01:55:25;;;;;;;27.60;12.07;;;7.50;95.90;;;;;;5030844;28;20193;-45
2022/03/17 01:57:52;;;;;;;24.53;10.47;;;7.40;95.80;;;;;;5026432;28;20220;-45
2022/03/17 02:00:21;;;;;;;21.17;9.27;;;7.40;95.90;;;;;;5029193;28;20672;-47
2022/03/17 02:02:51;;;;;;;43.53;17.63;;;7.40;96.00;;;;;;5030409;28;20686;-45
2022/03/17 02:05:18;;;;;;;43.43;18.27;;;7.40;96.00;;;;;;5027748;28;20230;-47
2022/03/17 02:07:48;;;;;;;40.57;16.13;;;7.50;96.10;;;;;;5018626;28;20286;-48
2022/03/17 02:10:15;;;;;;;29.63;13.23;;;7.50;96.10;;;;;;5019545;28;20273;-46
2022/03/17 02:15:32;;;;;;;30.47;12.43;;;7.50;95.90;;;;;;5009697;28;20283;-48
2022/03/17 02:17:59;;;;;;;48.67;21.37;;;7.50;95.80;;;;;;5002017;28;20562;-48
2022/03/17 02:20:27;;;;;;;38.23;16.30;;;7.50;95.90;;;;;;5004618;28;20278;-49
2022/03/17 02:25:33;;;;;;;31.83;13.70;;;7.50;95.90;;;;;;5021885;28;20256;-44
2022/03/17 02:25:47;;;;;;;40.80;16.87;;;7.40;95.80;;;;;;5017707;28;20279;-50
2022/03/17 02:28:15;;;;;;;34.67;14.73;;;7.40;95.80;;;;;;5013104;28;20314;-46
2022/03/17 02:30:43;;;;;;;26.47;11.23;;;7.40;95.80;;;;;;5011017;28;20205;-44
2022/03/17 02:33:15;;;;;;;20.73;9.53;;;7.50;95.90;;;;;;5023876;28;20197;-48
2022/03/17 02:35:43;;;;;;;23.83;10.43;;;7.50;95.80;;;;;;5009070;28;20209;-47
2022/03/17 02:38:13;;;;;;;19.07;9.37;;;7.40;95.70;;;;;;5021687;28;20201;-44
2022/03/17 02:40:43;;;;;;;45.50;17.53;;;7.40;95.70;;;;;;5024125;28;20203;-46
2022/03/17 02:43:14;;;;;;;45.83;18.17;;;7.40;95.70;;;;;;5021536;28;20191;-46
2022/03/17 02:45:42;;;;;;;31.93;13.83;;;7.40;95.70;;;;;;5014895;28;20185;-44
2022/03/17 02:48:09;;;;;;;33.07;13.43;;;7.40;95.70;;;;;;5022979;28;20198;-44
2022/03/17 02:50:37;;;;;;;26.20;12.13;;;7.30;95.60;;;;;;5017068;28;20204;-46
2022/03/17 02:53:06;;;;;;;38.00;14.37;;;7.30;95.60;;;;;;5024607;28;20204;-49
2022/03/17 02:55:34;;;;;;;26.00;11.37;;;7.30;95.70;;;;;;5024284;28;20615;-44
2022/03/17 02:58:01;;;;;;;24.77;11.33;;;7.30;95.70;;;;;;5011458;28;20205;-47
2022/03/17 03:00:30;;;;;;;42.67;18.63;;;7.30;95.70;;;;;;5013897;28;20200;-48
2022/03/17 03:02:57;;;;;;;37.27;17.17;;;7.30;95.60;;;;;;4998959;28;20196;-45
2022/03/17 03:05:26;;;;;;;29.33;13.60;;;7.20;95.60;;;;;;5017203;28;20319;-46
2022/03/17 03:07:53;;;;;;;27.43;12.43;;;7.20;95.60;;;;;;5005481;28;20194;-48
2022/03/17 03:10:21;;;;;;;22.77;10.03;;;7.10;95.60;;;;;;5028359;28;20206;-48
2022/03/17 03:12:48;;;;;;;23.73;10.50;;;7.10;95.70;;;;;;5024850;28;20204;-48
2022/03/17 03:15:16;;;;;;;18.50;9.10;;;7.10;95.70;;;;;;5026651;28;20197;-50
2022/03/17 03:17:44;;;;;;;18.10;8.33;;;7.10;95.70;;;;;;5017118;28;20283;-49
2022/03/17 03:20:12;;;;;;;22.23;10.27;;;7.10;95.70;;;;;;5019643;28;20275;-46
2022/03/17 03:22:40;;;;;;;20.10;9.33;;;7.10;95.70;;;;;;5012246;28;20232;-50
2022/03/17 03:25:09;;;;;;;22.27;9.50;;;7.10;95.70;;;;;;5011322;28;20202;-48
2022/03/17 03:27:39;;;;;;;24.87;11.63;;;7.00;95.70;;;;;;5019868;28;20558;-51
2022/03/17 03:30:07;;;;;;;29.07;13.13;;;7.00;95.70;;;;;;5016620;28;20213;-51
2022/03/17 03:32:34;;;;;;;43.00;17.77;;;7.00;95.70;;;;;;5008197;28;20265;-53
2022/03/17 03:37:22;;;;;;;43.40;18.77;;;6.90;95.70;;;;;;5023534;28;20195;-48
2022/03/17 03:37:49;;;;;;;45.73;19.97;;;6.90;95.80;;;;;;5021044;28;20284;-46
2022/03/17 03:40:16;;;;;;;34.97;15.97;;;6.90;95.90;;;;;;5020050;28;20192;-46
2022/03/17 03:42:43;;;;;;;26.73;12.90;;;6.80;95.90;;;;;;5020464;28;20200;-45
2022/03/17 03:45:10;;;;;;;28.50;12.73;;;6.80;96.00;;;;;;5013661;28;20605;-46
2022/03/17 03:47:38;;;;;;;30.83;13.70;;;6.80;96.00;;;;;;5022914;28;20232;-43
2022/03/17 03:50:07;;;;;;;25.37;12.20;;;6.80;96.00;;;;;;5032789;28;20246;-46
2022/03/17 03:52:34;;;;;;;21.63;11.00;;;6.80;96.40;;;;;;5028599;28;20201;-47
2022/03/17 03:55:01;;;;;;;19.53;10.23;;;6.70;96.00;;;;;;5024868;28;20647;-44
2022/03/17 03:57:28;;;;;;;21.90;10.10;;;6.70;95.90;;;;;;5022911;28;20219;-44
2022/03/17 03:59:56;;;;;;;19.27;9.50;;;6.70;96.00;;;;;;5010772;28;20230;-44
2022/03/17 04:02:23;;;;;;;21.40;9.87;;;6.60;96.00;;;;;;5019702;28;20288;-47
2022/03/17 04:04:50;;;;;;;28.93;12.67;;;6.60;96.00;;;;;;5021968;28;20315;-46
2022/03/17 04:07:19;;;;;;;24.93;12.10;;;6.60;96.20;;;;;;5022510;28;20199;-49
2022/03/17 04:09:46;;;;;;;25.53;12.07;;;6.60;96.30;;;;;;5024414;28;20212;-44
2022/03/17 04:12:14;;;;;;;35.83;15.57;;;6.60;96.30;;;;;;5024066;28;20198;-48
2022/03/17 04:14:42;;;;;;;35.77;15.23;;;6.60;96.30;;;;;;5025722;28;20531;-45
2022/03/17 04:17:09;;;;;;;25.33;12.33;;;6.70;96.20;;;;;;5025504;28;20231;-45
2022/03/17 04:19:36;;;;;;;28.73;13.20;;;6.70;96.20;;;;;;5023178;28;20203;-48
2022/03/17 04:22:04;;;;;;;25.70;11.80;;;6.70;96.10;;;;;;5014064;28;20200;-46
2022/03/17 04:24:32;;;;;;;24.47;10.67;;;6.60;96.10;;;;;;5005329;28;20218;-44
2022/03/17 04:26:59;;;;;;;32.93;14.83;;;6.60;96.20;;;;;;5030513;28;20195;-47
2022/03/17 04:29:28;;;;;;;26.77;13.07;;;6.60;96.20;;;;;;5023785;28;20211;-44
2022/03/17 04:31:55;;;;;;;35.03;15.90;;;6.60;96.10;;;;;;5015592;28;20227;-47
2022/03/17 04:34:22;;;;;;;21.87;10.93;;;6.50;96.10;;;;;;5029487;28;20202;-44
2022/03/17 04:36:49;;;;;;;28.80;13.23;;;6.40;96.10;;;;;;5023993;28;20207;-49
2022/03/17 04:39:16;;;;;;;27.27;12.17;;;6.30;96.30;;;;;;5024225;28;20250;-48
2022/03/17 04:41:45;;;;;;;19.20;9.37;;;6.30;96.40;;;;;;5028549;28;21096;-47
2022/03/17 04:44:13;;;;;;;20.90;10.07;;;6.30;96.50;;;;;;5028327;28;20200;-51
2022/03/17 04:46:40;;;;;;;17.97;8.80;;;6.30;96.50;;;;;;5019414;28;20195;-44
2022/03/17 04:49:08;;;;;;;29.53;13.00;;;6.40;96.50;;;;;;5023966;28;20213;-50
2022/03/17 04:51:36;;;;;;;26.63;12.00;;;6.40;96.40;;;;;;5028684;28;20337;-52
2022/03/17 04:54:02;;;;;;;21.37;10.17;;;6.40;96.50;;;;;;5027488;28;20212;-51
2022/03/17 04:56:30;;;;;;;23.40;11.03;;;6.40;96.40;;;;;;5027800;28;20291;-44
2022/03/17 04:58:59;;;;;;;28.10;13.67;;;6.30;96.40;;;;;;5025166;28;20199;-46
2022/03/17 05:01:26;;;;;;;29.63;12.80;;;6.30;96.50;;;;;;5027474;28;20264;-47
2022/03/17 05:03:53;;;;;;;23.37;10.70;;;6.30;96.50;;;;;;5011889;28;20740;-46
2022/03/17 05:06:20;;;;;;;20.67;9.40;;;6.30;96.50;;;;;;5010507;28;20205;-51
2022/03/17 05:08:47;;;;;;;18.57;9.73;;;6.30;96.40;;;;;;5009070;28;20610;-49
2022/03/17 05:11:15;;;;;;;22.93;11.53;;;6.30;96.30;;;;;;5028562;28;20241;-48
2022/03/17 05:13:43;;;;;;;20.63;10.60;;;6.30;96.10;;;;;;5031919;28;20199;-50
2022/03/17 05:16:11;;;;;;;19.57;9.60;;;6.20;96.00;;;;;;5004108;28;20192;-47
2022/03/17 05:18:38;;;;;;;16.40;8.20;;;6.20;95.90;;;;;;5031062;28;20194;-50
2022/03/17 05:21:06;;;;;;;18.20;8.57;;;6.10;95.90;;;;;;5028363;28;20220;-53
2022/03/17 05:23:33;;;;;;;16.13;8.40;;;6.10;96.00;;;;;;5026951;28;20229;-52
2022/03/17 05:26:01;;;;;;;18.33;9.13;;;6.00;95.90;;;;;;5013983;28;20221;-50
2022/03/17 05:28:28;;;;;;;15.63;7.97;;;6.00;96.10;;;;;;5013617;28;20658;-46
2022/03/17 05:30:55;;;;;;;12.87;7.30;;;6.00;96.10;;;;;;5027487;28;20241;-46
2022/03/17 05:33:24;;;;;;;27.00;12.43;;;6.00;96.20;;;;;;5029656;28;20194;-46
2022/03/17 05:35:51;;;;;;;35.63;16.13;;;6.00;96.10;;;;;;5004556;28;20195;-47
2022/03/17 05:38:18;;;;;;;37.60;16.37;;;6.00;95.90;;;;;;5002081;28;20655;-44
2022/03/17 05:40:45;;;;;;;36.43;17.00;;;6.10;95.90;;;;;;5030033;28;20203;-47
2022/03/17 05:43:12;;;;;;;37.43;16.80;;;6.00;95.70;;;;;;5014815;28;20198;-45
2022/03/17 05:45:41;;;;;;;37.43;16.27;;;6.00;95.60;;;;;;5028871;28;20229;-45
2022/03/17 05:48:09;;;;;;;26.03;11.97;;;5.90;95.70;;;;;;5015597;28;20289;-46
2022/03/17 05:50:40;;;;;;;19.07;10.07;;;5.90;95.80;;;;;;5020355;28;20219;-49
2022/03/17 05:53:08;;;;;;;17.30;8.33;;;5.90;95.90;;;;;;5025317;28;20197;-47
2022/03/17 05:55:35;;;;;;;22.93;10.50;;;5.90;95.80;;;;;;5019844;28;20211;-46
2022/03/17 05:58:03;;;;;;;18.80;9.43;;;5.90;95.90;;;;;;5025048;28;20198;-45
2022/03/17 06:00:31;;;;;;;19.23;9.87;;;5.90;95.80;;;;;;5022097;28;20199;-48
2022/03/17 06:03:00;;;;;;;21.63;10.30;;;5.90;95.90;;;;;;5003638;28;21096;-44
2022/03/17 06:05:27;;;;;;;22.57;10.50;;;5.90;95.80;;;;;;5024490;28;20710;-45
2022/03/17 06:07:59;;;;;;;25.10;11.57;;;5.90;95.80;;;;;;5016437;28;20210;-50
2022/03/17 06:10:29;;;;;;;22.87;11.00;;;5.90;95.80;;;;;;5024070;28;20203;-49
2022/03/17 06:12:57;;;;;;;23.40;11.17;;;5.90;95.90;;;;;;5007025;28;20215;-44
2022/03/17 06:15:25;;;;;;;23.50;10.80;;;6.00;95.90;;;;;;5015612;28;20233;-44
2022/03/17 06:17:54;;;;;;;19.07;9.20;;;6.00;95.90;;;;;;5027467;28;20978;-47
2022/03/17 06:20:22;;;;;;;25.17;11.87;;;6.00;95.90;;;;;;5027442;28;20207;-48
2022/03/17 06:22:51;;;;;;;22.67;11.40;;;6.00;96.20;;;;;;5015576;28;20211;-50
2022/03/17 06:25:21;;;;;;;22.53;11.37;;;6.00;95.90;;;;;;5020089;28;20676;-48
2022/03/17 06:27:50;;;;;;;16.13;8.50;;;5.90;95.90;;;;;;5027064;28;20212;-46
2022/03/17 06:30:19;;;;;;;22.20;11.03;;;5.90;95.90;;;;;;5015694;28;20280;-49
2022/03/17 06:32:47;;;;;;;19.50;9.53;;;5.90;96.10;;;;;;5021087;28;20199;-50
2022/03/17 06:35:17;;;;;;;18.97;10.00;;;5.90;96.10;;;;;;5025196;28;20306;-46
2022/03/17 06:37:46;;;;;;;25.37;10.50;;;5.90;96.20;;;;;;5025250;28;20633;-45
2022/03/17 06:40:13;;;;;;;23.77;11.37;;;5.90;96.10;;;;;;5023226;28;20652;-46
2022/03/17 06:42:42;;;;;;;16.97;9.33;;;6.00;96.00;;;;;;5019544;28;20203;-50
2022/03/17 06:45:10;;;;;;;17.97;10.07;;;6.10;96.00;;;;;;5027693;28;20225;-53
2022/03/17 06:47:37;;;;;;;17.60;8.90;;;6.20;95.90;;;;;;5017315;28;20196;-54
2022/03/17 06:50:05;;;;;;;18.83;9.73;;;6.20;95.90;;;;;;5012836;28;20626;-53
2022/03/17 06:52:32;;;;;;;18.03;8.70;;;6.30;95.80;;;;;;5018206;28;20212;-53
2022/03/17 06:54:59;;;;;;;21.40;10.37;;;6.40;95.80;;;;;;5020187;28;20206;-49
2022/03/17 06:57:27;;;;;;;29.97;13.33;;;6.40;95.70;;;;;;5026683;28;20261;-50
2022/03/17 06:59:56;;;;;;;33.33;14.00;;;6.50;95.70;;;;;;5029300;28;20284;-45
2022/03/17 07:02:23;;;;;;;43.27;17.13;;;6.50;95.50;;;;;;5026010;28;20214;-46
2022/03/17 07:04:50;;;;;;;33.03;15.67;;;6.60;95.40;;;;;;5025673;28;20226;-45
2022/03/17 07:07:17;;;;;;;28.50;14.10;;;6.60;95.40;;;;;;5027914;28;20203;-48
2022/03/17 07:09:44;;;;;;;31.57;15.30;;;6.60;95.30;;;;;;5027848;28;20237;-46
2022/03/17 07:12:12;;;;;;;24.13;11.87;;;6.60;95.30;;;;;;5024371;28;20201;-50
2022/03/17 07:14:39;;;;;;;21.90;11.43;;;6.60;95.30;;;;;;5017940;28;20689;-50
2022/03/17 07:17:08;;;;;;;23.33;11.87;;;6.70;95.20;;;;;;5025041;28;20524;-45
2022/03/17 07:19:35;;;;;;;18.00;10.67;;;6.70;95.10;;;;;;5035023;28;20218;-49
2022/03/17 07:22:03;;;;;;;23.17;11.83;;;6.80;95.20;;;;;;5028874;28;20199;-45
2022/03/17 07:24:30;;;;;;;18.37;9.80;;;6.90;95.20;;;;;;5025549;28;20194;-46
2022/03/17 07:26:59;;;;;;;27.90;13.10;;;7.00;95.10;;;;;;5026412;28;20574;-46
2022/03/17 07:29:28;;;;;;;23.67;12.57;;;7.10;95.00;;;;;;5028239;28;20285;-49
2022/03/17 07:31:56;;;;;;;36.63;16.07;;;7.20;94.90;;;;;;5026056;28;20993;-50
2022/03/17 07:34:25;;;;;;;29.30;15.20;;;7.30;94.60;;;;;;5009483;28;20622;-50
2022/03/17 07:36:53;;;;;;;32.73;16.37;;;7.30;94.50;;;;;;5025806;28;20727;-47
2022/03/17 07:39:20;;;;;;;31.93;16.33;;;7.50;94.10;;;;;;5009826;28;20516;-46
2022/03/17 07:41:47;;;;;;;31.27;16.23;;;7.50;94.00;;;;;;5025623;28;20198;-47
2022/03/17 07:44:14;;;;;;;29.40;15.23;;;7.50;93.90;;;;;;5023452;28;20229;-46
2022/03/17 07:47:00;;;;;;;23.00;12.70;;;7.60;93.90;;;;;;5025119;28;20216;-46
2022/03/17 07:49:39;;;;;;;26.73;13.53;;;7.70;93.80;;;;;;5009023;28;20215;-47
2022/03/17 07:52:08;;;;;;;21.97;12.37;;;7.80;93.60;;;;;;5025634;28;20215;-47
2022/03/17 07:54:37;;;;;;;27.00;14.53;;;7.90;93.20;;;;;;5027680;28;20194;-44
2022/03/17 07:57:05;;;;;;;27.47;14.23;;;7.90;92.90;;;;;;5026072;28;20208;-44
2022/03/17 07:59:34;;;;;;;27.77;13.70;;;8.00;92.80;;;;;;5027237;28;20757;-49
2022/03/17 08:02:04;;;;;;;22.80;12.13;;;8.10;92.90;;;;;;5026997;28;20199;-47
2022/03/17 08:04:32;;;;;;;22.10;11.30;;;8.50;93.10;;;;;;5024372;28;20283;-46
2022/03/17 08:07:01;;;;;;;25.60;12.70;;;9.40;92.60;;;;;;5031359;28;20577;-46
2022/03/17 08:09:28;;;;;;;28.67;13.73;;;10.70;90.20;;;;;;5028069;28;20198;-48
2022/03/17 08:11:56;;;;;;;18.80;10.63;;;11.80;86.60;;;;;;5014848;28;20222;-46
2022/03/17 08:14:23;;;;;;;25.83;13.07;;;12.70;82.50;;;;;;5027839;28;20223;-47
2022/03/17 08:16:50;;;;;;;19.43;11.17;;;13.60;78.30;;;;;;5032681;28;20251;-49
2022/03/17 08:19:17;;;;;;;19.43;11.13;;;14.30;74.70;;;;;;5025946;28;20573;-47
2022/03/17 08:21:44;;;;;;;25.90;12.80;;;15.00;70.90;;;;;;5028277;28;20194;-49
2022/03/17 08:24:13;;;;;;;21.70;11.43;;;15.30;64.60;;;;;;5024624;28;20199;-45
2022/03/17 08:26:41;;;;;;;17.77;10.93;;;15.60;62.20;;;;;;5028855;28;20222;-46
2022/03/17 08:29:08;;;;;;;21.27;11.87;;;15.90;60.40;;;;;;5026246;28;20194;-47
2022/03/17 08:31:35;;;;;;;16.67;10.30;;;16.30;58.90;;;;;;5024086;28;20214;-48
2022/03/17 08:34:02;;;;;;;16.77;10.50;;;16.80;58.40;;;;;;5031572;28;20241;-45
2022/03/17 08:36:29;;;;;;;13.10;8.47;;;17.10;57.10;;;;;;5021023;28;20198;-47
2022/03/17 08:38:56;;;;;;;22.03;11.70;;;17.50;56.40;;;;;;5011416;28;20220;-46
2022/03/17 08:41:25;;;;;;;19.87;10.87;;;17.90;54.80;;;;;;5031948;28;20572;-48
2022/03/17 08:43:52;;;;;;;15.50;9.10;;;18.20;53.60;;;;;;5030172;28;20228;-50
2022/03/17 08:49:22;;;;;;;14.43;9.13;;;18.50;52.30;;;;;;5029850;28;20209;-45
2022/03/17 08:51:51;;;;;;;16.23;10.10;;;18.60;51.70;;;;;;5027794;28;20212;-48
2022/03/17 08:54:20;;;;;;;18.07;10.90;;;18.60;51.00;;;;;;5028462;28;20208;-45
2022/03/17 08:56:49;;;;;;;18.10;11.07;;;18.80;50.30;;;;;;5031390;28;20291;-44
2022/03/17 08:59:16;;;;;;;19.83;11.17;;;18.70;48.20;;;;;;5027113;28;20372;-46
2022/03/17 09:01:43;;;;;;;17.73;11.43;;;18.40;48.70;;;;;;5030213;28;20596;-45
2022/03/17 09:04:14;;;;;;;20.10;11.17;;;18.40;48.70;;;;;;5034996;28;20224;-46
2022/03/17 09:06:43;;;;;;;17.50;10.40;;;18.30;48.70;;;;;;5028223;28;20193;-44
2022/03/17 09:09:10;;;;;;;21.53;11.70;;;18.70;48.60;;;;;;5028013;28;20204;-47
2022/03/17 09:11:37;;;;;;;18.13;11.13;;;18.90;47.40;;;;;;5028083;28;20205;-47
2022/03/17 09:14:07;;;;;;;19.50;12.03;;;18.90;47.60;;;;;;5031078;28;20199;-48
2022/03/17 09:16:34;;;;;;;19.63;11.70;;;18.60;47.30;;;;;;5028149;28;20297;-44
2022/03/17 09:19:01;;;;;;;16.23;10.23;;;18.50;47.50;;;;;;5018968;28;20202;-47
2022/03/17 09:21:28;;;;;;;17.90;10.63;;;18.30;47.80;;;;;;5030108;28;20202;-45
2022/03/17 09:23:56;;;;;;;23.20;13.53;;;18.20;47.90;;;;;;5030378;28;20198;-47
2022/03/17 09:26:23;;;;;;;22.37;13.90;;;18.30;47.30;;;;;;5028234;28;20249;-49
2022/03/17 09:28:51;;;;;;;17.53;11.53;;;18.60;46.30;;;;;;5031229;28;20607;-52
2022/03/17 09:31:20;;;;;;;13.97;9.43;;;19.00;46.80;;;;;;5026775;28;20684;-51
2022/03/17 09:33:47;;;;;;;15.07;10.30;;;19.40;46.80;;;;;;5030112;28;20199;-47
2022/03/17 09:36:16;;;;;;;17.67;10.67;;;19.70;46.30;;;;;;5030925;28;20202;-49
2022/03/17 09:38:43;;;;;;;14.40;9.23;;;20.10;45.90;;;;;;5030146;28;20206;-47
2022/03/17 09:41:24;;;;;;;19.37;11.30;;;20.70;45.80;;;;;;5031015;28;20198;-44
2022/03/17 09:43:52;;;;;;;13.70;9.83;;;21.30;44.80;;;;;;5008273;28;20723;-46
2022/03/17 09:46:22;;;;;;;17.57;11.53;;;21.70;44.00;;;;;;5026961;28;20225;-46
2022/03/17 09:48:52;;;;;;;14.23;9.52;;;22.30;43.40;;;;;;5030156;28;20597;-50
2022/03/17 09:51:21;;;;;;;13.88;8.95;;;22.80;43.00;;;;;;5027838;28;20264;-52
2022/03/17 09:53:53;;;;;;;15.00;9.73;;;23.40;42.50;;;;;;5029479;28;20285;-48
2022/03/17 09:56:20;;;;;;;14.77;9.85;;;23.90;42.00;;;;;;5030516;28;20218;-50
2022/03/17 09:58:48;;;;;;;15.88;10.88;;;24.20;41.20;;;;;;5027425;28;20253;-47
2022/03/17 10:01:16;;;;;;;14.68;10.25;;;24.50;40.20;;;;;;5028861;28;20199;-48
2022/03/17 10:03:45;;;;;;;14.32;10.13;;;24.80;39.80;;;;;;5029813;28;20256;-49
2022/03/17 10:06:14;;;;;;;12.63;9.13;;;24.90;39.30;;;;;;5007931;28;20610;-47
2022/03/17 10:08:43;;;;;;;16.40;10.85;;;25.10;39.30;;;;;;5013267;28;20205;-47
2022/03/17 10:11:15;;;;;;;18.77;11.38;;;25.40;37.90;;;;;;5016948;28;20207;-49
2022/03/17 10:13:48;;;;;;;13.05;8.70;;;25.60;37.70;;;;;;5011584;28;20198;-46
2022/03/17 10:16:18;;;;;;;15.50;9.80;;;26.10;37.70;;;;;;5008175;28;20643;-46
2022/03/17 10:18:56;;;;;;;22.42;13.27;;;26.60;37.20;;;;;;5007030;28;20183;-45
2022/03/17 10:21:24;;;;;;;18.90;11.70;;;27.00;35.30;;;;;;5015393;28;20191;-47
2022/03/17 10:23:54;;;;;;;13.90;9.98;;;27.10;34.20;;;;;;5014239;28;20565;-47
2022/03/17 10:26:35;;;;;;;14.50;11.18;;;27.30;34.60;;;;;;5007651;28;20617;-46
2022/03/17 10:29:11;;;;;;;17.02;11.60;;;27.60;34.00;;;;;;5008320;28;20230;-45
2022/03/17 10:31:52;;;;;;;15.73;9.32;;;27.90;32.90;;;;;;5012403;28;20289;-44
2022/03/17 10:34:21;;;;;;;13.80;10.18;;;28.20;33.40;;;;;;5011946;28;20733;-49
2022/03/17 10:36:49;;;;;;;15.15;10.20;;;28.50;32.80;;;;;;5009771;28;20294;-44
2022/03/17 10:39:16;;;;;;;19.38;12.63;;;28.80;32.40;;;;;;4991364;28;20223;-51
2022/03/17 10:41:45;;;;;;;14.65;10.85;;;29.00;30.80;;;;;;5013576;28;20223;-45
2022/03/17 10:44:15;;;;;;;13.10;9.95;;;29.10;31.10;;;;;;5012768;28;20199;-49
2022/03/17 10:46:56;;;;;;;13.52;9.70;;;29.30;31.30;;;;;;5005859;28;20199;-49
2022/03/17 10:49:24;;;;;;;15.05;10.88;;;29.60;31.10;;;;;;5021860;28;20190;-46
2022/03/17 10:51:55;;;;;;;15.45;10.60;;;29.80;30.30;;;;;;5013240;28;20200;-46
2022/03/17 10:54:23;;;;;;;17.17;11.45;;;30.00;30.30;;;;;;5010585;28;20684;-45
2022/03/17 10:57:02;;;;;;;17.83;13.65;;;30.30;29.80;;;;;;5012443;28;20195;-43
2022/03/17 10:59:43;;;;;;;25.17;14.95;;;30.50;28.50;;;;;;5011416;28;20195;-46
2022/03/17 11:02:12;;;;;;;16.38;11.07;;;30.30;27.80;;;;;;5007591;28;20229;-46
2022/03/17 11:04:41;;;;;;;16.17;12.23;;;30.40;28.30;;;;;;5015107;28;20238;-44
2022/03/17 11:07:13;;;;;;;19.23;13.23;;;30.70;28.20;;;;;;5024945;28;20202;-48
2022/03/17 11:09:42;;;;;;;17.30;11.40;;;30.80;27.60;;;;;;5023487;28;20728;-50
2022/03/17 11:12:10;;;;;;;14.77;11.38;;;30.90;27.80;;;;;;5026253;28;20223;-51
2022/03/17 11:14:42;;;;;;;19.80;12.95;;;31.20;27.70;;;;;;5021556;28;20195;-44
2022/03/17 11:17:12;;;;;;;17.85;12.50;;;31.40;26.80;;;;;;5013577;28;20221;-47
2022/03/17 11:19:42;;;;;;;17.17;12.77;;;31.40;26.10;;;;;;5025156;28;20190;-50
2022/03/17 11:22:14;;;;;;;17.27;12.98;;;31.10;25.80;;;;;;5028041;28;20204;-47
2022/03/17 11:24:41;;;;;;;21.65;13.52;;;31.00;25.80;;;;;;5027055;28;20197;-49
2022/03/17 11:27:11;;;;;;;18.13;12.90;;;31.20;25.50;;;;;;5026306;28;20205;-50
2022/03/17 11:29:41;;;;;;;14.60;11.07;;;31.20;25.50;;;;;;5024258;28;20627;-51
2022/03/17 11:32:24;;;;;;;17.20;11.57;;;31.30;25.60;;;;;;5025163;28;20309;-47
2022/03/17 11:35:07;;;;;;;18.48;12.57;;;31.60;25.50;;;;;;5025332;28;20666;-48
2022/03/17 11:37:34;;;;;;;14.75;10.82;;;31.60;24.40;;;;;;5022646;28;20225;-47
2022/03/17 11:40:07;;;;;;;13.95;10.75;;;31.80;24.60;;;;;;5018396;28;20659;-48
2022/03/17 11:42:40;;;;;;;13.88;10.40;;;31.80;24.20;;;;;;5023816;28;20575;-49
2022/03/17 11:45:40;;;;;;;17.20;12.40;;;31.90;24.40;;;;;;5028332;28;20203;-50
2022/03/17 11:48:14;;;;;;;19.58;13.73;;;32.00;23.80;;;;;;5020916;28;20563;-48
2022/03/17 11:50:52;;;;;;;16.52;10.95;;;31.90;23.60;;;;;;5020927;28;20193;-49
2022/03/17 11:53:47;;;;;;;14.93;11.40;;;31.80;23.90;;;;;;5003320;28;20198;-52
2022/03/17 11:56:29;;;;;;;19.08;12.07;;;31.70;23.60;;;;;;4999293;28;20215;-50
2022/03/17 11:58:56;;;;;;;14.02;10.68;;;31.50;23.00;;;;;;5009995;28;20632;-49
2022/03/17 12:01:25;;;;;;;14.38;10.82;;;31.40;22.80;;;;;;5015617;28;20690;-45
2022/03/17 12:03:56;;;;;;;14.30;10.68;;;31.30;23.10;;;;;;5019924;28;20840;-52
2022/03/17 12:06:26;;;;;;;14.15;10.80;;;31.50;23.30;;;;;;5011509;28;20203;-50
2022/03/17 12:09:00;;;;;;;16.77;12.45;;;31.40;23.10;;;;;;5028271;28;20586;-49
2022/03/17 12:11:30;;;;;;;17.17;12.45;;;30.90;22.90;;;;;;5022380;28;20210;-51
2022/03/17 12:14:18;;;;;;;16.75;12.25;;;30.60;23.00;;;;;;5025125;28;20293;-46
2022/03/17 12:16:47;;;;;;;18.08;11.75;;;29.60;23.10;;;;;;5020588;28;20222;-49
2022/03/17 12:19:35;;;;;;;19.65;13.68;;;29.10;23.60;;;;;;5027486;28;20368;-46
2022/03/17 12:22:37;;;;;;;18.92;12.30;;;28.60;23.80;;;;;;5021909;28;20540;-52
2022/03/17 12:25:14;;;;;;;18.05;12.45;;;28.40;23.90;;;;;;5027319;28;20239;-46
2022/03/17 12:27:43;;;;;;;18.13;10.50;;;28.10;23.90;;;;;;5025322;28;20198;-50
2022/03/17 12:30:12;;;;;;;14.88;10.95;;;27.50;23.80;;;;;;5010403;28;20204;-50
2022/03/17 12:32:41;;;;;;;13.82;9.95;;;27.10;24.20;;;;;;5018869;28;20574;-48
2022/03/17 12:35:10;;;;;;;16.48;11.55;;;26.80;24.60;;;;;;5027042;28;20194;-51
2022/03/17 12:37:41;;;;;;;16.75;10.88;;;26.50;24.60;;;;;;5011194;28;20199;-48
2022/03/17 12:40:15;;;;;;;19.38;11.15;;;26.00;24.80;;;;;;5017494;28;20582;-49
2022/03/17 12:42:44;;;;;;;14.55;10.27;;;25.70;25.30;;;;;;5026536;28;20202;-46
2022/03/17 12:45:13;;;;;;;19.67;11.77;;;25.30;25.50;;;;;;5018375;28;20199;-48
2022/03/17 12:47:41;;;;;;;17.00;11.75;;;25.20;25.70;;;;;;5017867;28;20222;-45
2022/03/17 12:50:10;;;;;;;15.98;11.30;;;24.80;25.90;;;;;;5016379;28;20198;-48
2022/03/17 12:52:42;;;;;;;18.15;11.27;;;24.40;26.10;;;;;;5027186;28;20235;-46